createdAt,value
2023-03-01T01:47:16.351Z,4.60
2023-03-01T04:56:12.211Z,4.30
2023-03-01T05:01:57.482Z,4.87
2023-03-01T05:04:30.488Z,4.55
2023-03-01T05:07:07.478Z,4.72
2023-03-01T05:09:41.650Z,4.43
2023-03-01T05:12:16.150Z,4.32
2023-03-01T05:14:46.677Z,4.68
2023-03-01T05:17:20.172Z,4.60
2023-03-01T05:19:57.221Z,5.43
2023-03-01T05:22:32.515Z,4.90
2023-03-01T05:25:07.034Z,6.60
2023-03-01T05:27:36.351Z,7.20
2023-03-01T05:30:11.082Z,7.25
2023-03-01T05:32:42.444Z,8.50
2023-03-01T05:35:20.090Z,7.95
2023-03-01T05:37:52.275Z,9.30
2023-03-01T05:40:23.979Z,10.13
2023-03-01T05:49:57.350Z,10.45
2023-03-01T05:56:06.728Z,9.68
2023-03-01T05:58:35.609Z,9.32
2023-03-01T06:01:06.578Z,9.60
2023-03-01T06:03:40.449Z,16.02
2023-03-01T06:10:06.118Z,12.63
2023-03-01T06:12:56.720Z,13.25
2023-03-01T06:18:40.888Z,13.82
2023-03-01T06:21:12.952Z,13.05
2023-03-01T06:24:18.813Z,14.75
2023-03-01T06:26:54.986Z,13.60
2023-03-01T06:29:45.168Z,14.40
2023-03-01T06:32:23.153Z,15.57
2023-03-01T06:35:11.634Z,33.80
2023-03-01T06:38:26.517Z,40.97
2023-03-01T06:47:15.161Z,48.00
2023-03-01T06:49:50.271Z,49.17
2023-03-01T06:56:00.833Z,51.35
2023-03-01T07:02:31.659Z,54.15
2023-03-01T07:14:37.346Z,82.15
2023-03-01T07:20:48.409Z,79.68
2023-03-01T07:30:28.366Z,189.68
2023-03-01T07:33:12.341Z,160.82
2023-03-01T07:35:43.117Z,102.97
2023-03-01T07:38:10.762Z,86.05
2023-03-01T07:40:41.032Z,107.35
2023-03-01T07:43:11.869Z,127.72
2023-03-01T07:45:49.872Z,114.85
2023-03-01T07:48:29.264Z,121.03
2023-03-01T07:51:08.532Z,108.78
2023-03-01T07:53:36.330Z,123.57
2023-03-01T07:56:45.545Z,122.35
2023-03-01T08:06:33.262Z,98.87
2023-03-01T08:12:27.206Z,90.25
2023-03-01T08:15:12.968Z,87.53
2023-03-01T08:24:49.110Z,75.72
2023-03-01T08:27:24.641Z,77.20
2023-03-01T08:30:13.811Z,69.00
2023-03-01T09:18:31.266Z,47.55
2023-03-01T09:27:30.049Z,43.30
2023-03-01T09:34:00.939Z,40.70
2023-03-01T09:39:52.021Z,38.63
2023-03-01T09:45:46.790Z,36.00
2023-03-01T09:55:28.834Z,33.72
2023-03-01T09:58:46.097Z,34.30
2023-03-01T10:05:16.659Z,32.88
2023-03-01T10:29:00.173Z,29.15
2023-03-01T10:31:38.819Z,29.33
2023-03-01T10:34:15.700Z,28.08
2023-03-01T10:36:49.838Z,27.23
2023-03-01T10:39:26.386Z,29.83
2023-03-01T10:42:09.997Z,32.50
2023-03-01T10:44:50.438Z,43.83
2023-03-01T10:47:24.590Z,34.00
2023-03-01T10:50:10.918Z,30.62
2023-03-01T10:56:12.236Z,32.60
2023-03-01T10:59:00.609Z,32.00
2023-03-01T11:01:39.605Z,33.40
2023-03-01T11:04:10.424Z,31.08
2023-03-01T11:06:46.541Z,30.55
2023-03-01T11:09:47.063Z,29.45
2023-03-01T11:12:21.954Z,28.77
2023-03-01T11:14:55.763Z,29.02
2023-03-01T11:17:34.719Z,26.02
2023-03-01T11:20:35.592Z,28.65
2023-03-01T11:23:22.852Z,27.62
2023-03-01T11:26:00.050Z,30.30
2023-03-01T11:28:31.542Z,27.15
2023-03-01T11:31:09.550Z,25.62
2023-03-01T11:34:02.789Z,26.10
2023-03-01T11:36:44.731Z,26.00
2023-03-01T11:43:05.295Z,24.83
2023-03-01T11:46:11.840Z,23.17
2023-03-01T11:49:05.459Z,23.30
2023-03-01T11:52:03.704Z,22.85
2023-03-01T11:55:03.322Z,23.23
2023-03-01T11:57:54.872Z,21.65
2023-03-01T12:00:35.465Z,20.65
2023-03-01T12:03:23.933Z,20.10
2023-03-01T12:06:13.460Z,20.50
2023-03-01T12:09:23.395Z,19.55
2023-03-01T12:12:03.408Z,20.95
2023-03-01T12:15:08.863Z,20.85
2023-03-01T12:18:14.649Z,18.90
2023-03-01T12:21:00.128Z,18.77
2023-03-01T12:23:30.484Z,17.65
2023-03-01T12:26:37.762Z,18.48
2023-03-01T12:29:17.728Z,17.58
2023-03-01T12:32:19.510Z,17.95
2023-03-01T12:35:11.101Z,16.95
2023-03-01T12:38:16.593Z,16.83
2023-03-01T12:41:10.737Z,15.80
2023-03-01T12:44:00.216Z,15.80
2023-03-01T12:47:05.453Z,15.93
2023-03-01T12:50:16.089Z,15.55
2023-03-01T12:53:05.500Z,15.93
2023-03-01T12:55:43.447Z,16.00
2023-03-01T12:58:51.084Z,15.40
2023-03-01T13:01:48.964Z,14.43
2023-03-01T13:04:33.373Z,14.10
2023-03-01T13:07:35.882Z,13.65
2023-03-01T13:10:42.782Z,14.18
2023-03-01T13:13:17.204Z,14.20
2023-03-01T13:16:22.426Z,14.32
2023-03-01T13:22:38.093Z,13.00
2023-03-01T13:25:42.052Z,12.88
2023-03-01T13:28:46.647Z,12.93
2023-03-01T13:31:18.725Z,13.05
2023-03-01T13:37:25.033Z,12.18
2023-03-01T13:39:54.274Z,12.35
2023-03-01T13:42:41.799Z,11.02
2023-03-01T13:45:42.083Z,11.12
2023-03-01T13:48:32.093Z,12.68
2023-03-01T13:51:06.856Z,12.32
2023-03-01T13:53:49.193Z,11.35
2023-03-01T13:56:56.556Z,11.93
2023-03-01T13:59:30.698Z,9.23
2023-03-01T14:02:05.784Z,10.23
2023-03-01T14:04:42.538Z,9.98
2023-03-01T14:10:55.471Z,10.88
2023-03-01T14:13:58.318Z,9.85
2023-03-01T14:17:06.195Z,9.63
2023-03-01T14:23:01.950Z,8.45
2023-03-01T14:25:39.124Z,10.00
2023-03-01T14:28:44.800Z,9.00
2023-03-01T14:31:53.658Z,9.52
2023-03-01T14:34:29.143Z,10.13
2023-03-01T14:41:01.714Z,9.43
2023-03-01T14:44:26.014Z,8.00
2023-03-01T14:49:48.829Z,8.68
2023-03-01T14:52:24.544Z,8.50
2023-03-01T14:54:56.050Z,8.30
2023-03-01T14:57:27.498Z,8.38
2023-03-01T15:00:06.957Z,7.55
2023-03-01T15:02:36.732Z,9.32
2023-03-01T15:05:14.999Z,10.77
2023-03-01T15:08:28.047Z,9.20
2023-03-01T15:11:23.679Z,9.30
2023-03-01T15:14:00.519Z,8.00
2023-03-01T15:16:41.263Z,8.50
2023-03-01T15:22:44.772Z,7.90
2023-03-01T15:25:29.001Z,8.43
2023-03-01T15:31:40.711Z,7.35
2023-03-01T15:34:29.194Z,8.40
2023-03-01T15:37:01.052Z,7.97
2023-03-01T15:39:51.775Z,7.60
2023-03-01T15:45:57.416Z,7.68
2023-03-01T15:48:32.753Z,7.20
2023-03-01T15:55:00.341Z,7.43
2023-03-01T15:57:33.202Z,7.97
2023-03-01T16:00:48.650Z,7.43
2023-03-01T16:03:33.465Z,7.70
2023-03-01T16:06:03.518Z,7.80
2023-03-01T16:08:33.971Z,7.57
2023-03-01T16:11:05.851Z,8.10
2023-03-01T16:13:36.291Z,8.75
2023-03-01T16:21:36.578Z,6.57
2023-03-01T16:26:42.719Z,7.32
2023-03-01T16:34:33.991Z,7.18
2023-03-01T16:37:07.944Z,7.15
2023-03-01T16:42:56.881Z,6.57
2023-03-01T16:53:00.906Z,7.12
2023-03-01T16:55:59.077Z,7.20
2023-03-01T17:01:41.461Z,6.85
2023-03-01T17:04:17.022Z,6.85
2023-03-01T17:45:20.152Z,7.28
2023-03-01T17:53:39.573Z,6.93
2023-03-01T18:02:05.105Z,6.53
2023-03-01T18:04:35.417Z,6.57
2023-03-01T18:09:37.575Z,6.25
2023-03-01T18:12:10.161Z,6.22
2023-03-01T18:14:40.755Z,5.93
2023-03-01T18:17:10.884Z,5.82
2023-03-01T18:19:41.921Z,6.15
2023-03-01T18:22:09.198Z,6.30
2023-03-01T18:24:37.845Z,5.97
2023-03-01T18:27:08.382Z,5.53
2023-03-01T18:29:37.679Z,5.20
2023-03-01T18:32:05.713Z,5.20
2023-03-01T18:34:35.176Z,5.20
2023-03-01T18:37:10.111Z,5.03
2023-03-01T18:39:40.594Z,5.30
2023-03-01T18:42:08.435Z,5.12
2023-03-01T18:44:37.197Z,5.45
2023-03-01T18:47:15.049Z,4.75
2023-03-01T18:49:46.691Z,4.68
2023-03-01T18:52:17.321Z,5.22
2023-03-01T18:54:50.937Z,5.03
2023-03-01T18:57:21.271Z,5.10
2023-03-01T18:59:54.254Z,4.47
2023-03-01T19:10:36.631Z,4.65
2023-03-01T19:13:09.557Z,4.57
2023-03-01T19:15:38.201Z,4.95
2023-03-01T19:21:09.046Z,5.22
2023-03-01T19:23:39.566Z,4.90
2023-03-01T19:26:12.485Z,5.47
2023-03-01T19:28:43.760Z,4.75
2023-03-01T19:31:17.268Z,4.43
2023-03-01T19:34:22.855Z,5.12
2023-03-01T19:36:53.306Z,4.62
2023-03-01T19:39:24.368Z,5.03
2023-03-01T19:41:54.100Z,4.93
2023-03-01T19:44:23.204Z,4.72
2023-03-01T19:46:52.609Z,4.78
2023-03-01T19:49:21.042Z,4.82
2023-03-01T19:51:51.500Z,4.28
2023-03-01T19:54:24.473Z,4.93
2023-03-01T19:59:43.948Z,4.30
2023-03-01T20:02:50.636Z,4.40
2023-03-01T20:05:24.798Z,3.97
2023-03-01T20:07:55.475Z,3.90
2023-03-01T20:10:25.345Z,4.37
2023-03-01T20:12:53.426Z,4.68
2023-03-01T20:15:20.869Z,4.18
2023-03-01T20:17:50.959Z,4.12
2023-03-01T20:20:38.945Z,4.40
2023-03-01T20:23:42.960Z,4.10
2023-03-01T20:26:16.677Z,4.53
2023-03-01T20:28:53.272Z,4.35
2023-03-01T20:31:26.542Z,4.30
2023-03-01T20:33:59.293Z,4.18
2023-03-01T20:36:30.597Z,3.80
2023-03-01T20:39:01.185Z,4.35
2023-03-01T20:41:31.160Z,4.32
2023-03-01T20:44:04.164Z,3.92
2023-03-01T20:49:10.314Z,4.12
2023-03-01T20:51:38.294Z,4.30
2023-03-01T20:54:05.476Z,4.45
2023-03-01T20:56:35.631Z,4.70
2023-03-01T20:59:20.977Z,4.20
2023-03-01T21:01:54.746Z,4.50
2023-03-01T21:04:27.670Z,4.45
2023-03-01T21:07:03.634Z,4.35
2023-03-01T21:09:42.002Z,4.18
2023-03-01T21:12:15.705Z,3.87
2023-03-01T21:14:47.990Z,3.97
2023-03-01T21:17:22.035Z,3.87
2023-03-01T21:19:51.432Z,4.30
2023-03-01T21:22:21.428Z,4.25
2023-03-01T21:24:51.466Z,4.00
2023-03-01T21:27:25.480Z,4.32
2023-03-01T21:29:55.193Z,4.35
2023-03-01T21:32:27.726Z,4.15
2023-03-01T21:34:54.502Z,4.47
2023-03-01T21:37:24.750Z,4.30
2023-03-01T21:39:55.155Z,4.20
2023-03-01T21:42:28.967Z,3.72
2023-03-01T21:45:02.711Z,4.05
2023-03-01T21:47:41.616Z,3.85
2023-03-01T21:50:15.032Z,3.95
2023-03-01T21:52:47.948Z,4.03
2023-03-01T21:55:21.351Z,4.37
2023-03-01T21:57:54.160Z,4.30
2023-03-01T22:00:22.270Z,4.22
2023-03-01T22:02:52.876Z,3.95
2023-03-01T22:05:19.987Z,3.67
2023-03-01T22:07:51.131Z,3.90
2023-03-01T22:10:26.432Z,4.00
2023-03-01T22:13:00.417Z,4.05
2023-03-01T22:15:33.540Z,4.03
2023-03-01T22:23:14.832Z,4.10
2023-03-01T22:25:47.936Z,4.28
2023-03-01T22:30:55.537Z,3.97
2023-03-01T22:33:24.641Z,4.20
2023-03-01T22:35:55.008Z,3.97
2023-03-01T22:38:28.167Z,4.30
2023-03-01T22:41:08.260Z,4.10
2023-03-01T22:43:36.137Z,3.95
2023-03-01T22:46:18.375Z,4.07
2023-03-01T22:48:47.129Z,3.92
2023-03-01T22:51:22.831Z,3.87
2023-03-01T22:53:52.877Z,3.90
2023-03-01T22:56:27.184Z,3.83
2023-03-01T22:59:01.839Z,4.07
2023-03-01T23:01:32.770Z,4.10
2023-03-01T23:04:06.045Z,4.30
2023-03-01T23:06:35.941Z,4.72
2023-03-01T23:09:06.772Z,3.83
2023-03-01T23:11:36.185Z,4.20
2023-03-01T23:14:08.880Z,4.10
2023-03-01T23:16:45.763Z,4.07
2023-03-01T23:19:14.519Z,4.50
2023-03-01T23:21:49.741Z,4.10
2023-03-01T23:24:24.487Z,4.57
2023-03-01T23:27:04.066Z,4.03
2023-03-01T23:29:33.741Z,3.90
2023-03-01T23:32:03.885Z,3.70
2023-03-01T23:34:34.061Z,4.12
2023-03-01T23:37:08.810Z,3.90
2023-03-01T23:39:41.527Z,4.18
2023-03-01T23:42:13.617Z,4.12
2023-03-01T23:44:43.325Z,3.90
2023-03-01T23:47:16.833Z,3.75
2023-03-01T23:49:45.860Z,3.83
2023-03-01T23:52:15.602Z,4.37
2023-03-01T23:54:45.071Z,4.28
2023-03-01T23:57:17.145Z,4.18
2023-03-01T23:59:44.020Z,4.17
